Time;durP1;ratioP1;P1;durP2;ratioP2;P2;SDS_P1;SDS_P2;PMS_P1;PMS_P2;Temp;Humidity;BMP_temperature;BMP_pressure;BME280_temperature;BME280_humidity;BME280_pressure;Samples;Min_cycle;Max_cycle;Signal;HPM_P1;HPM_P2
2023/01/13 00:01:13;;;;;;;53.90;30.37;;;;;;;;;;4975031;28;20207;-46
2023/01/13 00:03:40;;;;;;;35.17;19.77;;;;;;;;;;4975319;28;20379;-45
2023/01/13 00:06:14;;;;;;;35.23;18.60;;;;;;;;;;4975054;28;20218;-46
2023/01/13 00:08:41;;;;;;;50.80;22.67;;;;;;;;;;4974332;28;20213;-46
2023/01/13 00:11:09;;;;;;;34.43;18.77;;;;;;;;;;4975110;28;20203;-46
2023/01/13 00:13:37;;;;;;;34.80;19.07;;;;;;;;;;4975000;28;20210;-45
2023/01/13 00:16:07;;;;;;;38.40;19.90;;;;;;;;;;4974832;28;20234;-46
2023/01/13 00:18:35;;;;;;;35.80;19.17;;;;;;;;;;4975176;28;20261;-46
2023/01/13 00:21:23;;;;;;;40.83;22.47;;;;;;;;;;4974809;28;20210;-47
2023/01/13 00:23:52;;;;;;;37.93;19.73;;;;;;;;;;4974915;28;20207;-46
2023/01/13 00:26:25;;;;;;;37.80;18.57;;;;;;;;;;4974875;28;20663;-46
2023/01/13 00:28:57;;;;;;;36.50;18.87;;;;;;;;;;4975182;28;20219;-46
2023/01/13 00:31:25;;;;;;;37.80;19.70;;;;;;;;;;4975095;28;20206;-46
2023/01/13 00:33:55;;;;;;;41.27;20.27;;;;;;;;;;4974728;28;20207;-47
2023/01/13 00:36:22;;;;;;;130.13;60.27;;;;;;;;;;4974533;28;20215;-46
2023/01/13 00:38:49;;;;;;;53.83;28.83;;;;;;;;;;4975065;28;20273;-46
2023/01/13 00:41:19;;;;;;;50.00;22.77;;;;;;;;;;4974784;28;20895;-46
2023/01/13 00:43:46;;;;;;;38.20;19.83;;;;;;;;;;4974911;28;20219;-45
2023/01/13 00:46:16;;;;;;;38.37;19.17;;;;;;;;;;4974921;28;20273;-46
2023/01/13 00:48:44;;;;;;;39.90;19.70;;;;;;;;;;4978231;28;20531;-46
2023/01/13 00:51:15;;;;;;;35.07;19.17;;;;;;;;;;4978220;28;20291;-47
2023/01/13 00:53:45;;;;;;;35.63;18.43;;;;;;;;;;4978117;28;20207;-47
2023/01/13 00:56:16;;;;;;;31.17;18.37;;;;;;;;;;4977997;28;20238;-48
2023/01/13 00:58:55;;;;;;;42.73;22.73;;;;;;;;;;4978270;28;20203;-47
2023/01/13 01:01:23;;;;;;;43.07;21.40;;;;;;;;;;4978097;28;20587;-47
2023/01/13 01:03:52;;;;;;;41.13;19.30;;;;;;;;;;4977853;28;20202;-46
2023/01/13 01:06:24;;;;;;;34.43;19.00;;;;;;;;;;4978131;28;20269;-47
2023/01/13 01:08:52;;;;;;;33.60;17.97;;;;;;;;;;4978028;28;20221;-46
2023/01/13 01:11:25;;;;;;;34.00;18.03;;;;;;;;;;4977921;28;20261;-46
2023/01/13 01:13:54;;;;;;;30.93;17.17;;;;;;;;;;4977940;28;20202;-47
2023/01/13 01:16:23;;;;;;;36.80;19.00;;;;;;;;;;4977842;28;20602;-46
2023/01/13 01:18:51;;;;;;;65.90;30.43;;;;;;;;;;4977978;28;20207;-46
2023/01/13 01:21:20;;;;;;;38.00;19.73;;;;;;;;;;4977749;28;20680;-47
2023/01/13 01:23:47;;;;;;;38.67;19.53;;;;;;;;;;4977554;28;20211;-47
2023/01/13 01:26:17;;;;;;;40.90;18.93;;;;;;;;;;4977571;28;20663;-46
2023/01/13 01:28:45;;;;;;;31.33;17.13;;;;;;;;;;4977490;28;20207;-46
2023/01/13 01:31:18;;;;;;;30.13;17.07;;;;;;;;;;4977706;28;20211;-47
2023/01/13 01:33:46;;;;;;;29.50;17.00;;;;;;;;;;4977803;28;20198;-46
2023/01/13 01:36:15;;;;;;;33.90;17.87;;;;;;;;;;4977268;28;20230;-49
2023/01/13 01:38:43;;;;;;;90.03;42.70;;;;;;;;;;4977290;28;20210;-50
2023/01/13 01:41:37;;;;;;;62.90;40.80;;;;;;;;;;4957918;28;20551;-46
2023/01/13 01:44:41;;;;;;;36.63;18.27;;;;;;;;;;4957688;28;20259;-46
2023/01/13 01:47:15;;;;;;;36.30;18.47;;;;;;;;;;4956900;28;20220;-46
2023/01/13 01:49:43;;;;;;;39.77;18.40;;;;;;;;;;4957830;28;20669;-47
2023/01/13 01:52:13;;;;;;;30.97;18.10;;;;;;;;;;4957096;29;20217;-46
2023/01/13 01:54:47;;;;;;;34.23;17.40;;;;;;;;;;4957531;28;20704;-46
2023/01/13 01:57:23;;;;;;;31.87;17.07;;;;;;;;;;4956715;28;20219;-48
2023/01/13 01:59:50;;;;;;;31.53;17.13;;;;;;;;;;4957708;28;20211;-46
2023/01/13 02:02:18;;;;;;;34.53;19.67;;;;;;;;;;4956570;29;20566;-46
2023/01/13 02:04:51;;;;;;;32.57;17.43;;;;;;;;;;4957792;28;20203;-45
2023/01/13 02:07:24;;;;;;;38.10;18.20;;;;;;;;;;4956762;29;20216;-46
2023/01/13 02:09:53;;;;;;;34.87;18.00;;;;;;;;;;4957527;28;20211;-46
2023/01/13 02:12:31;;;;;;;36.90;18.43;;;;;;;;;;4956745;29;20211;-46
2023/01/13 02:15:07;;;;;;;30.87;15.67;;;;;;;;;;4957643;28;20226;-47
2023/01/13 02:17:44;;;;;;;34.67;16.73;;;;;;;;;;4957391;28;20274;-46
2023/01/13 02:20:44;;;;;;;36.27;17.77;;;;;;;;;;4957418;28;20203;-46
2023/01/13 02:26:37;;;;;;;47.63;19.57;;;;;;;;;;4957286;28;20608;-46
2023/01/13 02:32:24;;;;;;;39.60;20.30;;;;;;;;;;4957067;28;20814;-46
2023/01/13 02:35:17;;;;;;;41.37;19.87;;;;;;;;;;4956173;29;20207;-46
2023/01/13 02:37:45;;;;;;;38.17;17.37;;;;;;;;;;4956990;28;20562;-46
2023/01/13 02:40:21;;;;;;;31.03;16.60;;;;;;;;;;4955937;29;20517;-47
2023/01/13 02:45:47;;;;;;;31.13;15.90;;;;;;;;;;4957190;28;20620;-46
2023/01/13 02:48:16;;;;;;;33.97;16.23;;;;;;;;;;4956194;29;20199;-46
2023/01/13 02:50:47;;;;;;;28.80;17.03;;;;;;;;;;4955996;29;20527;-46
2023/01/13 02:53:29;;;;;;;38.57;17.13;;;;;;;;;;4956034;29;20203;-46
2023/01/13 02:55:57;;;;;;;36.23;16.97;;;;;;;;;;4956627;28;20239;-46
2023/01/13 02:58:28;;;;;;;32.67;16.60;;;;;;;;;;4955586;29;20231;-46
2023/01/13 03:00:55;;;;;;;31.53;16.30;;;;;;;;;;4955643;29;20200;-47
2023/01/13 03:03:23;;;;;;;29.10;16.40;;;;;;;;;;4956681;28;20208;-48
2023/01/13 03:05:54;;;;;;;30.93;15.63;;;;;;;;;;4956682;28;20207;-46
2023/01/13 03:08:41;;;;;;;196.20;74.70;;;;;;;;;;4955757;29;20292;-46
2023/01/13 03:11:10;;;;;;;66.13;41.03;;;;;;;;;;4956147;28;20218;-47
2023/01/13 03:13:56;;;;;;;31.13;17.17;;;;;;;;;;4955703;28;20215;-46
2023/01/13 03:16:37;;;;;;;37.93;16.77;;;;;;;;;;4955398;29;20688;-46
2023/01/13 03:19:28;;;;;;;35.60;16.70;;;;;;;;;;4956342;28;20211;-48
2023/01/13 03:22:03;;;;;;;36.17;17.07;;;;;;;;;;4956485;28;20199;-46
2023/01/13 03:24:42;;;;;;;32.13;16.10;;;;;;;;;;4955466;29;20202;-46
2023/01/13 03:27:15;;;;;;;28.93;15.67;;;;;;;;;;4956204;28;20587;-47
2023/01/13 03:29:53;;;;;;;33.87;16.97;;;;;;;;;;4956055;28;20299;-47
2023/01/13 03:32:27;;;;;;;36.47;18.80;;;;;;;;;;4956240;28;20199;-46
2023/01/13 03:34:59;;;;;;;45.57;18.73;;;;;;;;;;4956248;28;20290;-46
2023/01/13 03:37:33;;;;;;;35.47;17.07;;;;;;;;;;4955370;29;20246;-49
2023/01/13 03:40:06;;;;;;;28.27;14.93;;;;;;;;;;4955117;29;20231;-46
2023/01/13 03:42:35;;;;;;;36.23;16.80;;;;;;;;;;4955416;29;20347;-47
2023/01/13 03:45:10;;;;;;;26.93;15.07;;;;;;;;;;4956090;28;20539;-46
2023/01/13 03:47:40;;;;;;;28.10;15.00;;;;;;;;;;4956395;28;20272;-47
2023/01/13 03:50:19;;;;;;;31.23;15.63;;;;;;;;;;4955068;29;20199;-46
2023/01/13 03:52:50;;;;;;;58.87;24.20;;;;;;;;;;4956560;28;20199;-45
2023/01/13 03:55:22;;;;;;;50.60;19.70;;;;;;;;;;4955019;29;20313;-47
2023/01/13 03:58:13;;;;;;;44.90;18.30;;;;;;;;;;4954840;29;20743;-46
2023/01/13 04:00:45;;;;;;;38.03;17.40;;;;;;;;;;4955017;29;20215;-46
2023/01/13 04:03:19;;;;;;;26.70;15.47;;;;;;;;;;4956151;28;20536;-46
2023/01/13 04:05:50;;;;;;;34.47;16.97;;;;;;;;;;4955286;29;20203;-46
2023/01/13 04:08:21;;;;;;;31.27;15.13;;;;;;;;;;4955828;28;20644;-47
2023/01/13 04:10:52;;;;;;;231.67;94.40;;;;;;;;;;4954989;29;20207;-46
2023/01/13 04:13:22;;;;;;;57.77;39.87;;;;;;;;;;4954772;29;20624;-46
2023/01/13 04:15:49;;;;;;;29.97;17.30;;;;;;;;;;4955906;28;20211;-46
2023/01/13 04:18:20;;;;;;;38.63;18.20;;;;;;;;;;4955858;28;20291;-46
2023/01/13 04:20:49;;;;;;;29.80;15.93;;;;;;;;;;4956620;28;20222;-47
2023/01/13 04:23:17;;;;;;;29.03;15.70;;;;;;;;;;4958523;29;20656;-46
2023/01/13 04:25:44;;;;;;;27.60;15.67;;;;;;;;;;4959391;28;20215;-46
2023/01/13 04:28:13;;;;;;;29.97;16.17;;;;;;;;;;4959289;28;20741;-46
2023/01/13 04:30:41;;;;;;;30.30;16.33;;;;;;;;;;4963349;28;20210;-46
2023/01/13 04:33:09;;;;;;;66.87;29.57;;;;;;;;;;4978143;28;20532;-47
2023/01/13 04:35:37;;;;;;;35.83;18.63;;;;;;;;;;4978038;28;20206;-47
2023/01/13 04:38:10;;;;;;;29.93;16.07;;;;;;;;;;4977970;28;20609;-47
2023/01/13 04:40:38;;;;;;;33.67;17.10;;;;;;;;;;4977195;28;20206;-49
2023/01/13 04:43:05;;;;;;;28.13;15.53;;;;;;;;;;4974477;28;20670;-46
2023/01/13 04:45:32;;;;;;;140.80;86.63;;;;;;;;;;4977265;28;20261;-49
2023/01/13 04:48:00;;;;;;;183.27;105.37;;;;;;;;;;4977187;28;20266;-49
2023/01/13 04:50:27;;;;;;;115.57;70.97;;;;;;;;;;4976620;28;20203;-48
2023/01/13 04:52:54;;;;;;;118.37;63.53;;;;;;;;;;4977199;28;20199;-45
2023/01/13 04:55:24;;;;;;;82.50;40.63;;;;;;;;;;4976511;28;20573;-46
2023/01/13 04:57:51;;;;;;;58.97;31.73;;;;;;;;;;4976836;28;20241;-46
2023/01/13 05:00:21;;;;;;;49.17;22.43;;;;;;;;;;4978040;28;20238;-46
2023/01/13 05:02:50;;;;;;;43.27;20.63;;;;;;;;;;4977895;28;20269;-46
2023/01/13 05:05:17;;;;;;;32.67;15.87;;;;;;;;;;4965802;28;20238;-49
2023/01/13 05:07:45;;;;;;;28.70;14.50;;;;;;;;;;4958062;28;20231;-46
2023/01/13 05:10:12;;;;;;;145.13;58.57;;;;;;;;;;4977261;28;20592;-52
2023/01/13 05:18:11;;;;;;;35.13;20.07;;;;;;;;;;4965439;28;20231;-46
2023/01/13 05:20:38;;;;;;;41.57;20.57;;;;;;;;;;4957584;28;20239;-45
2023/01/13 05:25:52;;;;;;;26.27;14.63;;;;;;;;;;4973709;28;20226;-49
2023/01/13 05:28:19;;;;;;;43.40;21.90;;;;;;;;;;4976387;28;20247;-48
2023/01/13 05:30:48;;;;;;;34.17;17.77;;;;;;;;;;4975765;28;20221;-46
2023/01/13 05:33:17;;;;;;;37.13;18.73;;;;;;;;;;4975108;28;20223;-46
2023/01/13 05:35:45;;;;;;;35.67;18.63;;;;;;;;;;4974604;28;20231;-46
2023/01/13 05:38:13;;;;;;;41.50;19.20;;;;;;;;;;4957551;28;20239;-49
2023/01/13 05:43:26;;;;;;;29.20;15.80;;;;;;;;;;4976048;28;20246;-45
2023/01/13 05:45:57;;;;;;;31.67;21.60;;;;;;;;;;4976579;28;20230;-46
2023/01/13 05:48:32;;;;;;;33.90;20.87;;;;;;;;;;4976349;28;20622;-48
2023/01/13 05:51:00;;;;;;;44.20;21.30;;;;;;;;;;4956369;28;20223;-47
2023/01/13 05:53:28;;;;;;;31.93;16.93;;;;;;;;;;4955128;29;20223;-46
2023/01/13 05:55:55;;;;;;;30.40;17.13;;;;;;;;;;4955700;28;20334;-47
2023/01/13 05:58:24;;;;;;;34.53;17.23;;;;;;;;;;4956354;28;20266;-47
2023/01/13 06:00:52;;;;;;;36.93;18.03;;;;;;;;;;4957011;28;20677;-47
2023/01/13 06:03:19;;;;;;;27.67;15.40;;;;;;;;;;4956475;29;20227;-46
2023/01/13 06:05:47;;;;;;;23.90;13.30;;;;;;;;;;4956590;28;20227;-46
2023/01/13 06:08:14;;;;;;;32.27;17.07;;;;;;;;;;4956742;28;20679;-46
2023/01/13 06:10:41;;;;;;;36.20;18.77;;;;;;;;;;4956567;28;20231;-47
2023/01/13 06:13:08;;;;;;;56.90;21.93;;;;;;;;;;4968817;28;20664;-49
2023/01/13 06:15:35;;;;;;;43.43;19.53;;;;;;;;;;4975512;28;20301;-46
2023/01/13 06:18:03;;;;;;;31.53;20.77;;;;;;;;;;4975645;28;20234;-47
2023/01/13 06:20:30;;;;;;;32.93;19.03;;;;;;;;;;4957376;28;20318;-46
2023/01/13 06:22:58;;;;;;;24.33;13.43;;;;;;;;;;4956718;28;20227;-46
2023/01/13 06:25:35;;;;;;;29.97;15.00;;;;;;;;;;4955161;28;20235;-51
2023/01/13 06:28:03;;;;;;;24.33;14.27;;;;;;;;;;4956379;28;20239;-47
2023/01/13 06:30:35;;;;;;;23.07;12.93;;;;;;;;;;4955621;28;20318;-47
2023/01/13 06:33:06;;;;;;;28.20;15.27;;;;;;;;;;4954925;28;20231;-48
2023/01/13 06:35:35;;;;;;;28.27;14.00;;;;;;;;;;4955573;28;20223;-47
2023/01/13 06:38:06;;;;;;;29.70;15.03;;;;;;;;;;4954757;28;20239;-48
2023/01/13 06:40:34;;;;;;;28.43;15.50;;;;;;;;;;4955559;28;20219;-46
2023/01/13 06:43:14;;;;;;;40.10;16.90;;;;;;;;;;4954770;28;20314;-46
2023/01/13 06:45:54;;;;;;;27.67;13.70;;;;;;;;;;4955764;28;20672;-47
2023/01/13 06:48:31;;;;;;;27.37;14.13;;;;;;;;;;4954054;28;20230;-54
2023/01/13 06:50:59;;;;;;;37.83;25.57;;;;;;;;;;4955179;28;20242;-46
2023/01/13 06:53:26;;;;;;;29.43;17.80;;;;;;;;;;4954729;28;20223;-47
2023/01/13 06:55:53;;;;;;;26.93;15.10;;;;;;;;;;4955189;28;20298;-47
2023/01/13 06:58:20;;;;;;;26.63;13.63;;;;;;;;;;4954350;28;20250;-47
2023/01/13 07:00:50;;;;;;;27.80;13.53;;;;;;;;;;4954944;28;20298;-47
2023/01/13 07:03:18;;;;;;;23.70;13.27;;;;;;;;;;4954197;28;20231;-52
2023/01/13 07:05:53;;;;;;;28.17;14.50;;;;;;;;;;4956007;28;20234;-47
2023/01/13 07:08:21;;;;;;;23.77;12.37;;;;;;;;;;4955589;28;20235;-52
2023/01/13 07:10:48;;;;;;;18.73;11.40;;;;;;;;;;4955020;28;20235;-47
2023/01/13 07:16:03;;;;;;;26.60;13.70;;;;;;;;;;4955377;28;20664;-48
2023/01/13 07:18:32;;;;;;;31.73;13.27;;;;;;;;;;4954167;28;20699;-45
2023/01/13 07:21:09;;;;;;;29.47;13.07;;;;;;;;;;4955498;28;20227;-45
2023/01/13 07:23:38;;;;;;;19.83;11.23;;;;;;;;;;4954481;28;20223;-48
2023/01/13 07:26:07;;;;;;;20.13;13.53;;;;;;;;;;4955385;28;20337;-46
2023/01/13 07:28:35;;;;;;;20.47;12.57;;;;;;;;;;4955245;28;20238;-46
2023/01/13 07:31:02;;;;;;;19.13;11.53;;;;;;;;;;4953433;28;20227;-54
2023/01/13 07:33:33;;;;;;;20.07;11.43;;;;;;;;;;4973016;28;20231;-49
2023/01/13 07:36:02;;;;;;;17.80;11.17;;;;;;;;;;4974000;28;20230;-48
2023/01/13 07:38:30;;;;;;;20.77;12.33;;;;;;;;;;4972347;28;20261;-53
2023/01/13 07:43:30;;;;;;;20.03;11.27;;;;;;;;;;4973407;28;20254;-49
2023/01/13 07:43:45;;;;;;;21.77;11.37;;;;;;;;;;4973636;28;20563;-53
2023/01/13 07:46:12;;;;;;;22.10;11.17;;;;;;;;;;4974316;28;20309;-48
2023/01/13 07:48:39;;;;;;;17.80;10.97;;;;;;;;;;4953245;28;20557;-48
2023/01/13 07:51:08;;;;;;;50.37;20.30;;;;;;;;;;4954107;29;20238;-47
2023/01/13 07:53:37;;;;;;;26.53;13.87;;;;;;;;;;4954127;28;20255;-49
2023/01/13 07:56:05;;;;;;;30.13;14.67;;;;;;;;;;4955624;28;20290;-51
2023/01/13 07:58:34;;;;;;;25.80;12.70;;;;;;;;;;4957050;28;20235;-53
2023/01/13 08:01:12;;;;;;;22.20;16.20;;;;;;;;;;4957735;29;20246;-50
2023/01/13 08:03:40;;;;;;;18.33;12.00;;;;;;;;;;4958176;28;20734;-48
2023/01/13 08:06:08;;;;;;;18.03;10.33;;;;;;;;;;4959482;28;20227;-51
2023/01/13 08:08:36;;;;;;;23.63;13.57;;;;;;;;;;4957979;28;20239;-50
2023/01/13 08:11:05;;;;;;;23.23;12.00;;;;;;;;;;4959159;28;20302;-49
2023/01/13 08:13:32;;;;;;;26.60;12.87;;;;;;;;;;4958224;28;20231;-49
2023/01/13 08:16:06;;;;;;;19.90;12.23;;;;;;;;;;4958305;28;20715;-48
2023/01/13 08:18:36;;;;;;;18.90;11.23;;;;;;;;;;4960365;28;20668;-53
2023/01/13 08:21:06;;;;;;;18.37;10.17;;;;;;;;;;4993101;28;20266;-48
2023/01/13 08:23:34;;;;;;;29.67;18.33;;;;;;;;;;4976695;28;20230;-47
2023/01/13 08:26:04;;;;;;;45.80;35.67;;;;;;;;;;4976558;28;20227;-50
2023/01/13 08:28:31;;;;;;;101.47;74.97;;;;;;;;;;4976140;28;20238;-48
2023/01/13 08:31:04;;;;;;;61.60;47.10;;;;;;;;;;4977275;28;20223;-50
2023/01/13 08:33:32;;;;;;;63.43;49.67;;;;;;;;;;4992502;28;20218;-49
2023/01/13 08:36:03;;;;;;;79.97;58.37;;;;;;;;;;4977705;28;20226;-48
2023/01/13 08:38:30;;;;;;;82.33;70.70;;;;;;;;;;4955230;28;20243;-50
2023/01/13 08:40:58;;;;;;;50.97;39.17;;;;;;;;;;4968837;28;20625;-50
2023/01/13 08:43:25;;;;;;;22.30;14.00;;;;;;;;;;4976654;28;20550;-50
2023/01/13 08:45:59;;;;;;;20.10;10.73;;;;;;;;;;4974646;28;20235;-46
2023/01/13 08:48:27;;;;;;;20.40;11.80;;;;;;;;;;4957776;28;20231;-53
2023/01/13 08:51:02;;;;;;;18.20;10.63;;;;;;;;;;4976504;28;20329;-48
2023/01/13 08:53:30;;;;;;;14.67;9.83;;;;;;;;;;4972565;28;20234;-45
2023/01/13 08:55:57;;;;;;;19.30;9.17;;;;;;;;;;4975563;28;20243;-45
2023/01/13 08:58:24;;;;;;;16.60;10.23;;;;;;;;;;4977237;28;20284;-44
2023/01/13 09:00:51;;;;;;;18.07;10.17;;;;;;;;;;4976728;28;20238;-43
2023/01/13 09:03:19;;;;;;;21.20;11.40;;;;;;;;;;4976508;28;20234;-44
2023/01/13 09:05:46;;;;;;;22.23;11.10;;;;;;;;;;4975678;28;20680;-44
2023/01/13 09:08:13;;;;;;;30.87;22.50;;;;;;;;;;4974731;28;20235;-43
2023/01/13 09:10:40;;;;;;;18.30;11.30;;;;;;;;;;4975245;28;20703;-48
2023/01/13 09:13:11;;;;;;;18.03;9.97;;;;;;;;;;4975634;28;20305;-45
2023/01/13 09:15:40;;;;;;;22.30;12.07;;;;;;;;;;4975205;28;20329;-49
2023/01/13 09:18:08;;;;;;;16.63;10.60;;;;;;;;;;4975508;28;20246;-46
2023/01/13 09:20:35;;;;;;;20.77;11.13;;;;;;;;;;4976303;28;20242;-49
2023/01/13 09:23:03;;;;;;;16.70;10.70;;;;;;;;;;4976135;28;20238;-45
2023/01/13 09:25:30;;;;;;;19.27;12.50;;;;;;;;;;4976091;28;20539;-45
2023/01/13 09:27:58;;;;;;;19.70;11.20;;;;;;;;;;4975782;28;20230;-45
2023/01/13 09:30:25;;;;;;;57.60;26.13;;;;;;;;;;4976989;28;20226;-45
2023/01/13 09:34:58;;;;;;;18.07;11.80;;;;;;;;;;4976498;28;20585;-52
2023/01/13 09:35:39;;;;;;;27.33;13.73;;;;;;;;;;4976517;28;20226;-46
2023/01/13 09:38:06;;;;;;;20.10;12.80;;;;;;;;;;4974918;28;20238;-45
2023/01/13 09:40:36;;;;;;;23.80;14.40;;;;;;;;;;4975121;28;20218;-45
2023/01/13 09:49:03;;;;;;;44.07;27.30;;;;;;;;;;4975670;28;20218;-45
2023/01/13 09:51:38;;;;;;;26.57;15.90;;;;;;;;;;4975689;28;20213;-47
2023/01/13 09:54:12;;;;;;;25.40;15.13;;;;;;;;;;4975316;28;20210;-45
2023/01/13 09:56:39;;;;;;;24.00;15.43;;;;;;;;;;4975513;28;20632;-45
2023/01/13 09:59:10;;;;;;;25.63;15.93;;;;;;;;;;4976279;28;20219;-46
2023/01/13 10:01:58;;;;;;;26.17;17.03;;;;;;;;;;4976220;28;20229;-50
2023/01/13 10:04:25;;;;;;;27.27;17.53;;;;;;;;;;4975873;28;20250;-44
2023/01/13 10:07:00;;;;;;;25.80;16.13;;;;;;;;;;4975801;28;20223;-45
2023/01/13 10:09:40;;;;;;;26.27;16.43;;;;;;;;;;4974976;28;20194;-45
2023/01/13 10:14:58;;;;;;;28.50;16.40;;;;;;;;;;4975343;28;20210;-46
2023/01/13 10:17:31;;;;;;;33.10;19.20;;;;;;;;;;4974822;28;20557;-46
2023/01/13 10:20:13;;;;;;;78.60;43.57;;;;;;;;;;4975704;28;20215;-45
2023/01/13 10:23:22;;;;;;;88.70;53.23;;;;;;;;;;4975380;28;20203;-45
2023/01/13 10:26:07;;;;;;;26.53;14.73;;;;;;;;;;4944053;28;20200;-44
2023/01/13 10:28:34;;;;;;;22.83;11.47;;;;;;;;;;4976013;28;20229;-47
2023/01/13 10:31:09;;;;;;;19.47;10.47;;;;;;;;;;4974834;28;20644;-46
2023/01/13 10:33:36;;;;;;;18.63;10.60;;;;;;;;;;4975736;28;20666;-45
2023/01/13 10:36:20;;;;;;;20.53;11.00;;;;;;;;;;4971771;28;20261;-46
2023/01/13 10:38:49;;;;;;;16.93;9.50;;;;;;;;;;4954941;28;20263;-47
2023/01/13 10:41:25;;;;;;;19.70;10.33;;;;;;;;;;4954830;29;20651;-45
2023/01/13 10:44:16;;;;;;;30.23;14.37;;;;;;;;;;4956135;28;20203;-44
2023/01/13 10:46:52;;;;;;;19.13;11.27;;;;;;;;;;4956274;28;20270;-49
2023/01/13 10:49:37;;;;;;;31.05;16.52;;;;;;;;;;4955626;28;20207;-44
2023/01/13 10:52:24;;;;;;;27.13;13.17;;;;;;;;;;4956046;28;20203;-47
2023/01/13 10:54:53;;;;;;;27.67;14.30;;;;;;;;;;4955507;28;20608;-45
2023/01/13 10:57:23;;;;;;;30.30;15.30;;;;;;;;;;4955776;28;20644;-45
2023/01/13 10:59:51;;;;;;;25.95;14.13;;;;;;;;;;4955786;28;20732;-45
2023/01/13 11:02:28;;;;;;;30.30;16.23;;;;;;;;;;4955844;28;20208;-46
2023/01/13 11:05:01;;;;;;;49.90;29.27;;;;;;;;;;4969362;28;20246;-44
2023/01/13 11:07:33;;;;;;;35.65;18.13;;;;;;;;;;4974239;28;20231;-46
2023/01/13 11:10:26;;;;;;;23.50;13.27;;;;;;;;;;4966363;28;20639;-45
2023/01/13 11:13:15;;;;;;;26.50;13.53;;;;;;;;;;4973190;28;20231;-45
2023/01/13 11:15:54;;;;;;;22.70;12.13;;;;;;;;;;4973195;28;20309;-47
2023/01/13 11:19:01;;;;;;;28.17;14.45;;;;;;;;;;4974172;28;20234;-48
2023/01/13 11:21:33;;;;;;;23.00;12.87;;;;;;;;;;4973858;28;20555;-44
2023/01/13 11:24:09;;;;;;;25.30;12.05;;;;;;;;;;4975032;28;20207;-44
2023/01/13 11:26:49;;;;;;;31.50;16.95;;;;;;;;;;4974279;28;20264;-46
2023/01/13 11:29:24;;;;;;;32.20;15.63;;;;;;;;;;4975318;28;20210;-47
2023/01/13 11:32:09;;;;;;;28.23;14.05;;;;;;;;;;4960693;28;20203;-46
2023/01/13 11:34:39;;;;;;;25.80;13.57;;;;;;;;;;4955397;29;20187;-44
2023/01/13 11:37:30;;;;;;;25.15;13.20;;;;;;;;;;4954751;29;20208;-46
2023/01/13 11:40:26;;;;;;;21.07;10.80;;;;;;;;;;4949100;29;20235;-45
2023/01/13 11:43:23;;;;;;;29.33;13.70;;;;;;;;;;4950466;29;20211;-45
2023/01/13 11:45:54;;;;;;;36.63;19.00;;;;;;;;;;4947003;29;20199;-48
2023/01/13 11:48:25;;;;;;;67.00;32.60;;;;;;;;;;4954781;29;20196;-45
2023/01/13 11:50:58;;;;;;;18.13;10.17;;;;;;;;;;4954912;29;20211;-44
2023/01/13 11:53:31;;;;;;;18.02;10.70;;;;;;;;;;4954468;28;20207;-44
2023/01/13 11:56:14;;;;;;;20.00;9.63;;;;;;;;;;4955237;28;20642;-44
2023/01/13 11:58:51;;;;;;;22.73;10.80;;;;;;;;;;4955885;28;20199;-43
2023/01/13 12:01:37;;;;;;;24.97;11.73;;;;;;;;;;4955827;28;20199;-44
2023/01/13 12:04:23;;;;;;;14.65;8.70;;;;;;;;;;4955763;28;20211;-44
2023/01/13 12:07:11;;;;;;;14.50;8.60;;;;;;;;;;4954964;29;20184;-45
2023/01/13 12:09:51;;;;;;;37.93;19.77;;;;;;;;;;4954930;29;20235;-45
2023/01/13 12:12:35;;;;;;;15.73;9.73;;;;;;;;;;4955450;28;20629;-46
2023/01/13 12:15:16;;;;;;;16.42;8.90;;;;;;;;;;4955899;28;20203;-46
2023/01/13 12:18:11;;;;;;;18.33;9.60;;;;;;;;;;4955301;28;20203;-44
2023/01/13 12:20:58;;;;;;;18.57;10.17;;;;;;;;;;4955270;28;20318;-48
2023/01/13 12:23:38;;;;;;;65.77;36.03;;;;;;;;;;4955630;28;20207;-45
2023/01/13 12:26:07;;;;;;;19.60;12.00;;;;;;;;;;4954291;28;20191;-49
2023/01/13 12:28:58;;;;;;;17.70;10.00;;;;;;;;;;4954538;29;20204;-43
2023/01/13 12:31:26;;;;;;;18.13;10.13;;;;;;;;;;4968227;28;20688;-44
2023/01/13 12:34:12;;;;;;;19.43;10.97;;;;;;;;;;4967117;28;20249;-44
2023/01/13 12:36:39;;;;;;;16.40;9.23;;;;;;;;;;4970056;28;20260;-44
2023/01/13 12:39:16;;;;;;;18.40;10.75;;;;;;;;;;4969815;28;20234;-47
2023/01/13 12:44:36;;;;;;;27.67;13.15;;;;;;;;;;4957814;28;20632;-46
2023/01/13 12:47:03;;;;;;;16.90;9.37;;;;;;;;;;4958455;28;20596;-47
2023/01/13 12:49:32;;;;;;;17.73;9.07;;;;;;;;;;4958988;28;20239;-46
2023/01/13 12:52:06;;;;;;;22.13;10.55;;;;;;;;;;4957604;28;20203;-46
2023/01/13 12:54:36;;;;;;;18.23;9.40;;;;;;;;;;4966847;28;20231;-47
2023/01/13 12:57:15;;;;;;;15.68;9.25;;;;;;;;;;4976684;28;20210;-46
2023/01/13 13:00:02;;;;;;;15.23;8.68;;;;;;;;;;4977548;28;20675;-48
2023/01/13 13:02:35;;;;;;;29.70;20.17;;;;;;;;;;4970268;28;20210;-47
2023/01/13 13:05:21;;;;;;;28.60;12.95;;;;;;;;;;4957681;28;20196;-47
2023/01/13 13:07:52;;;;;;;25.15;11.18;;;;;;;;;;4957965;28;20195;-49
2023/01/13 13:10:29;;;;;;;23.80;9.88;;;;;;;;;;4955671;29;20621;-49
2023/01/13 13:13:19;;;;;;;27.52;10.95;;;;;;;;;;4956600;28;20191;-45
2023/01/13 13:15:48;;;;;;;20.80;9.32;;;;;;;;;;4958123;28;20601;-45
2023/01/13 13:18:15;;;;;;;21.47;9.43;;;;;;;;;;4957371;29;20637;-44
2023/01/13 13:20:54;;;;;;;14.48;8.77;;;;;;;;;;4957777;28;20243;-45
2023/01/13 13:23:36;;;;;;;95.10;37.70;;;;;;;;;;4958028;28;20191;-46
2023/01/13 13:26:15;;;;;;;24.67;12.50;;;;;;;;;;4958220;28;20225;-44
2023/01/13 13:29:10;;;;;;;40.42;14.73;;;;;;;;;;4957697;28;20195;-46
2023/01/13 13:31:43;;;;;;;47.73;16.00;;;;;;;;;;4956994;28;20556;-47
2023/01/13 13:34:34;;;;;;;20.97;11.17;;;;;;;;;;4956922;28;20239;-44
2023/01/13 13:37:23;;;;;;;16.73;9.57;;;;;;;;;;4957562;28;20687;-46
2023/01/13 13:48:24;;;;;;;23.47;12.77;;;;;;;;;;4959204;28;20200;-47
2023/01/13 13:50:56;;;;;;;25.85;11.55;;;;;;;;;;4957642;28;20223;-44
2023/01/13 13:53:30;;;;;;;22.05;11.13;;;;;;;;;;4960763;28;20243;-44
2023/01/13 13:56:00;;;;;;;27.27;11.65;;;;;;;;;;4974717;28;20252;-44
2023/01/13 13:58:29;;;;;;;19.17;10.27;;;;;;;;;;4976105;28;20742;-46
2023/01/13 14:00:56;;;;;;;27.85;12.32;;;;;;;;;;4974134;28;20241;-45
2023/01/13 14:03:31;;;;;;;106.20;42.50;;;;;;;;;;4975612;28;20245;-44
2023/01/13 14:06:01;;;;;;;22.37;12.43;;;;;;;;;;4965731;28;20305;-46
2023/01/13 14:08:32;;;;;;;25.07;12.23;;;;;;;;;;4962350;28;20628;-43
2023/01/13 14:11:00;;;;;;;29.17;12.38;;;;;;;;;;4976291;28;20282;-45
2023/01/13 14:13:29;;;;;;;37.80;14.15;;;;;;;;;;4975897;28;20594;-46
2023/01/13 14:15:58;;;;;;;28.63;11.63;;;;;;;;;;4975124;28;20238;-43
2023/01/13 14:18:27;;;;;;;24.67;12.43;;;;;;;;;;4976069;28;20234;-44
2023/01/13 14:20:58;;;;;;;28.30;12.57;;;;;;;;;;4974935;28;20698;-44
2023/01/13 14:23:29;;;;;;;255.50;121.23;;;;;;;;;;4975196;28;20234;-48
2023/01/13 14:26:08;;;;;;;168.77;106.73;;;;;;;;;;4964642;28;20235;-46
2023/01/13 14:28:37;;;;;;;49.30;23.48;;;;;;;;;;4956361;28;20747;-44
2023/01/13 14:31:06;;;;;;;32.67;15.37;;;;;;;;;;4954854;29;20860;-44
2023/01/13 14:33:45;;;;;;;39.70;15.57;;;;;;;;;;4956036;28;20688;-46
2023/01/13 14:36:23;;;;;;;37.78;13.57;;;;;;;;;;4955694;28;20239;-47
2023/01/13 14:39:02;;;;;;;32.88;12.68;;;;;;;;;;4955583;28;20232;-44
2023/01/13 14:41:41;;;;;;;32.53;13.95;;;;;;;;;;4956512;28;20249;-45
2023/01/13 14:44:08;;;;;;;21.35;10.95;;;;;;;;;;4956266;28;20231;-44
2023/01/13 14:46:45;;;;;;;33.90;17.00;;;;;;;;;;4955452;28;20543;-44
2023/01/13 14:49:28;;;;;;;39.67;17.40;;;;;;;;;;4955853;28;20294;-48
2023/01/13 14:52:14;;;;;;;27.97;13.50;;;;;;;;;;4955242;29;20257;-45
2023/01/13 14:54:46;;;;;;;26.43;12.77;;;;;;;;;;4955619;28;20682;-48
2023/01/13 14:57:14;;;;;;;27.60;12.38;;;;;;;;;;4955757;28;20242;-44
2023/01/13 14:59:56;;;;;;;24.25;11.27;;;;;;;;;;4955436;28;20258;-52
2023/01/13 15:02:29;;;;;;;27.90;11.90;;;;;;;;;;4955485;28;20227;-43
2023/01/13 15:05:23;;;;;;;38.35;13.20;;;;;;;;;;4968853;28;20304;-45
2023/01/13 15:07:50;;;;;;;221.93;107.30;;;;;;;;;;4973513;28;20262;-45
2023/01/13 15:10:19;;;;;;;50.80;22.23;;;;;;;;;;4955744;28;20223;-47
2023/01/13 15:12:49;;;;;;;26.40;12.55;;;;;;;;;;4954699;29;20219;-45
2023/01/13 15:15:22;;;;;;;34.43;14.73;;;;;;;;;;4953842;28;20223;-45
2023/01/13 15:17:50;;;;;;;24.00;11.43;;;;;;;;;;4955502;28;20313;-44
2023/01/13 15:20:20;;;;;;;35.10;13.80;;;;;;;;;;4955574;28;20250;-43
2023/01/13 15:22:47;;;;;;;31.90;12.70;;;;;;;;;;4968104;28;20226;-45
2023/01/13 15:25:15;;;;;;;27.38;12.52;;;;;;;;;;4958646;28;20231;-44
2023/01/13 15:27:43;;;;;;;31.73;13.83;;;;;;;;;;4955698;28;20251;-44
2023/01/13 15:30:23;;;;;;;33.70;15.68;;;;;;;;;;4954889;28;20289;-43
2023/01/13 15:32:51;;;;;;;28.13;12.43;;;;;;;;;;4955641;28;20233;-47